Time;durP1;ratioP1;P1;durP2;ratioP2;P2;SDS_P1;SDS_P2;PMS_P1;PMS_P2;Temp;Humidity;BMP_temperature;BMP_pressure;BME280_temperature;BME280_humidity;BME280_pressure;Samples;Min_cycle;Max_cycle;Signal;HPM_P1;HPM_P2
2022/10/03 00:02:04;;;;;;;;;;;;;;;9.61;100.00;-25335.91;5071357;28;19916;-75
2022/10/03 00:04:48;;;;;;;;;;;;;;;9.61;100.00;-25335.78;5071422;28;20399;-76
2022/10/03 00:07:15;;;;;;;;;;;;;;;9.50;100.00;-25332.69;5071268;28;20027;-75
2022/10/03 00:09:59;;;;;;;;;;;;;;;9.49;100.00;-25332.38;5071281;28;20272;-76
2022/10/03 00:13:04;;;;;;;;;;;;;;;9.41;100.00;-25330.19;5071467;28;19912;-77
2022/10/03 00:15:42;;;;;;;;;;;;;;;9.43;100.00;-25330.63;5029699;28;20072;-75
2022/10/03 00:18:13;;;;;;;;;;;;;;;9.47;100.00;-25331.81;5013401;28;19921;-75
2022/10/03 00:20:48;;;;;;;;;;;;;;;9.46;100.00;-25331.66;5041675;28;19924;-76
2022/10/03 00:23:34;;;;;;;;;;;;;;;9.42;100.00;-25330.34;5049732;28;19947;-77
2022/10/03 00:25:59;;;;;;;;;;;;;;;9.36;100.00;-25328.56;5035819;28;19927;-76
2022/10/03 00:28:46;;;;;;;;;;;;;;;9.36;100.00;-25328.56;5035173;28;19921;-76
2022/10/03 00:31:20;;;;;;;;;;;;;;;9.37;100.00;-25329.00;5026338;28;19920;-77
2022/10/03 00:33:57;;;;;;;;;;;;;;;9.39;100.00;-25329.47;5046466;28;20388;-77
2022/10/03 00:36:41;;;;;;;;;;;;;;;9.41;100.00;-25330.03;5035198;28;19917;-76
2022/10/03 00:39:17;;;;;;;;;;;;;;;9.40;100.00;-25329.75;5037957;28;19917;-77
2022/10/03 00:41:42;;;;;;;;;;;;;;;9.36;100.00;-25328.72;5055335;28;19959;-76
2022/10/03 00:44:15;;;;;;;;;;;;;;;9.36;100.00;-25328.72;5091948;28;19916;-76
2022/10/03 00:46:58;;;;;;;;;;;;;;;9.28;100.00;-25326.50;5092292;28;20012;-78
2022/10/03 00:49:36;;;;;;;;;;;;;;;9.25;100.00;-25325.63;5060141;28;19948;-79
2022/10/03 00:52:11;;;;;;;;;;;;;;;9.22;100.00;-25324.75;5094084;28;19916;-75
2022/10/03 00:54:42;;;;;;;;;;;;;;;9.22;100.00;-25324.59;5042794;28;19921;-78
2022/10/03 00:57:27;;;;;;;;;;;;;;;9.20;100.00;-25324.00;5092654;28;19960;-79
2022/10/03 00:59:52;;;;;;;;;;;;;;;9.23;100.00;-25325.03;5061061;28;19917;-77
2022/10/03 01:02:37;;;;;;;;;;;;;;;9.22;100.00;-25324.75;5097404;28;19916;-75
2022/10/03 01:05:22;;;;;;;;;;;;;;;9.21;100.00;-25324.44;5097368;28;19917;-81
2022/10/03 01:08:10;;;;;;;;;;;;;;;9.16;100.00;-25322.97;5100301;28;19984;-80
2022/10/03 01:10:51;;;;;;;;;;;;;;;9.11;100.00;-25321.50;5062376;28;19916;-77
2022/10/03 01:13:33;;;;;;;;;;;;;;;9.10;100.00;-25321.38;5062946;28;19974;-77
2022/10/03 01:16:13;;;;;;;;;;;;;;;9.12;100.00;-25321.81;5060638;28;19931;-76
2022/10/03 01:18:48;;;;;;;;;;;;;;;9.10;100.00;-25321.22;5096820;28;19916;-76
2022/10/03 01:21:13;;;;;;;;;;;;;;;9.12;100.00;-25321.81;5095445;28;19917;-77
2022/10/03 01:23:51;;;;;;;;;;;;;;;9.12;100.00;-25321.97;5094960;28;19970;-80
2022/10/03 01:26:45;;;;;;;;;;;;;;;9.13;100.00;-25322.25;5093390;28;19916;-79
2022/10/03 01:32:03;;;;;;;;;;;;;;;9.12;100.00;-25321.81;5076815;28;19943;-81
2022/10/03 01:34:35;;;;;;;;;;;;;;;9.08;100.00;-25320.63;5091974;28;19926;-79
2022/10/03 01:37:10;;;;;;;;;;;;;;;9.09;100.00;-25321.06;5092376;28;19916;-79
2022/10/03 01:39:36;;;;;;;;;;;;;;;9.12;100.00;-25321.97;5056956;28;19932;-77
2022/10/03 01:42:15;;;;;;;;;;;;;;;9.21;100.00;-25324.44;5039240;28;19920;-75
2022/10/03 01:44:54;;;;;;;;;;;;;;;9.25;100.00;-25325.50;5040337;28;20339;-76
2022/10/03 01:47:28;;;;;;;;;;;;;;;9.24;100.00;-25325.19;5055315;28;20399;-78
2022/10/03 01:50:05;;;;;;;;;;;;;;;9.19;100.00;-25323.88;5074030;28;20390;-76
2022/10/03 01:52:38;;;;;;;;;;;;;;;9.16;100.00;-25322.97;5056272;28;20344;-74
2022/10/03 01:55:18;;;;;;;;;;;;;;;9.18;100.00;-25323.56;5089564;28;20019;-75
2022/10/03 01:57:48;;;;;;;;;;;;;;;9.19;100.00;-25323.72;5089875;28;19917;-74
2022/10/03 02:00:16;;;;;;;;;;;;;;;9.22;100.00;-25324.75;5056137;28;20379;-77
2022/10/03 02:02:46;;;;;;;;;;;;;;;9.23;100.00;-25325.03;5055889;28;19946;-76
2022/10/03 02:05:12;;;;;;;;;;;;;;;9.34;100.00;-25328.28;5056577;28;19913;-76
2022/10/03 02:07:42;;;;;;;;;;;;;;;9.40;100.00;-25329.75;5056077;28;19927;-74
2022/10/03 02:10:07;;;;;;;;;;;;;;;9.44;100.00;-25331.06;5055515;28;19970;-77
2022/10/03 02:12:46;;;;;;;;;;;;;;;9.47;100.00;-25331.81;5039235;28;19956;-77
2022/10/03 02:15:13;;;;;;;;;;;;;;;9.43;100.00;-25330.78;5034537;28;19925;-76
2022/10/03 02:17:46;;;;;;;;;;;;;;;9.44;100.00;-25331.06;5053185;28;20019;-77
2022/10/03 02:20:22;;;;;;;;;;;;;;;9.43;100.00;-25330.78;5054674;28;19920;-78
2022/10/03 02:22:56;;;;;;;;;;;;;;;9.40;100.00;-25329.75;5047539;28;19960;-76
2022/10/03 02:25:34;;;;;;;;;;;;;;;9.38;100.00;-25329.16;5056361;28;19971;-77
2022/10/03 02:28:18;;;;;;;;;;;;;;;9.33;100.00;-25327.84;5056449;28;20011;-77
2022/10/03 02:31:02;;;;;;;;;;;;;;;9.33;100.00;-25327.84;5089494;28;19921;-77
2022/10/03 02:33:45;;;;;;;;;;;;;;;9.27;100.00;-25326.22;5069714;28;19964;-81
2022/10/03 02:36:14;;;;;;;;;;;;;;;9.26;100.00;-25325.78;5053218;28;19971;-79
2022/10/03 02:38:51;;;;;;;;;;;;;;;9.20;100.00;-25324.00;5070744;28;20018;-82
2022/10/03 02:41:35;;;;;;;;;;;;;;;9.17;100.00;-25323.28;5056343;28;19923;-79
2022/10/03 02:44:19;;;;;;;;;;;;;;;9.12;100.00;-25321.97;5089305;28;19923;-81
2022/10/03 02:46:45;;;;;;;;;;;;;;;9.09;100.00;-25320.94;5052975;28;19917;-83
2022/10/03 02:49:23;;;;;;;;;;;;;;;9.06;100.00;-25320.03;5036856;28;19963;-77
2022/10/03 02:52:00;;;;;;;;;;;;;;;9.08;100.00;-25320.63;5045102;28;20026;-79
2022/10/03 02:54:26;;;;;;;;;;;;;;;9.08;100.00;-25320.63;5073196;28;19916;-76
2022/10/03 02:57:10;;;;;;;;;;;;;;;9.08;100.00;-25320.78;5056756;28;19917;-78
2022/10/03 02:59:36;;;;;;;;;;;;;;;9.05;100.00;-25319.75;5056672;28;19986;-76
2022/10/03 03:02:23;;;;;;;;;;;;;;;9.02;100.00;-25318.88;5062911;28;19920;-79
2022/10/03 03:05:08;;;;;;;;;;;;;;;9.01;100.00;-25318.56;5074639;28;20031;-77
2022/10/03 03:07:46;;;;;;;;;;;;;;;8.98;100.00;-25317.84;5057278;28;19974;-82
2022/10/03 03:10:18;;;;;;;;;;;;;;;8.98;100.00;-25318.00;5055876;28;20276;-75
2022/10/03 03:12:45;;;;;;;;;;;;;;;8.94;100.00;-25316.81;5054772;28;20018;-75
2022/10/03 03:15:23;;;;;;;;;;;;;;;8.92;100.00;-25316.22;5064993;28;19920;-76
2022/10/03 03:21:11;;;;;;;;;;;;;;;8.91;100.00;-25315.94;5092259;28;20374;-82
2022/10/03 03:23:55;;;;;;;;;;;;;;;8.90;100.00;-25315.63;5072910;28;19997;-76
2022/10/03 03:26:41;;;;;;;;;;;;;;;8.89;100.00;-25315.34;5058438;28;20531;-75
2022/10/03 03:29:25;;;;;;;;;;;;;;;8.87;100.00;-25314.75;5050674;28;19916;-74
2022/10/03 03:32:06;;;;;;;;;;;;;;;8.83;100.00;-25313.56;5056765;28;19917;-75
2022/10/03 03:34:55;;;;;;;;;;;;;;;8.81;100.00;-25313.00;5073739;28;19963;-76
2022/10/03 03:37:38;;;;;;;;;;;;;;;8.79;100.00;-25312.53;5074781;28;19947;-74
2022/10/03 03:40:14;;;;;;;;;;;;;;;8.79;100.00;-25312.41;5074393;28;20273;-74
2022/10/03 03:42:59;;;;;;;;;;;;;;;8.78;100.00;-25312.25;5074844;28;20426;-74
2022/10/03 03:45:44;;;;;;;;;;;;;;;8.80;100.00;-25312.69;5067858;28;19917;-74
2022/10/03 03:48:20;;;;;;;;;;;;;;;8.74;100.00;-25310.94;5051388;28;19912;-78
2022/10/03 03:50:56;;;;;;;;;;;;;;;8.71;100.00;-25310.19;5035632;28;20024;-82
2022/10/03 03:53:38;;;;;;;;;;;;;;;8.69;100.00;-25309.47;5035147;28;19917;-79
2022/10/03 03:56:04;;;;;;;;;;;;;;;8.68;100.00;-25309.16;5035212;28;19917;-79
2022/10/03 03:58:50;;;;;;;;;;;;;;;8.67;100.00;-25308.88;5035451;28;20362;-78
2022/10/03 04:01:18;;;;;;;;;;;;;;;8.65;100.00;-25308.28;5035178;28;20372;-82
2022/10/03 04:03:52;;;;;;;;;;;;;;;8.65;100.00;-25308.41;5034750;28;19967;-78
2022/10/03 04:06:17;;;;;;;;;;;;;;;8.68;100.00;-25309.16;5035129;28;19917;-80
2022/10/03 04:09:01;;;;;;;;;;;;;;;8.73;100.00;-25310.63;5035162;28;19917;-77
2022/10/03 04:11:27;;;;;;;;;;;;;;;8.81;100.00;-25313.00;5068439;28;19917;-80
2022/10/03 04:14:06;;;;;;;;;;;;;;;8.89;100.00;-25315.34;5035493;28;19956;-79
2022/10/03 04:19:35;;;;;;;;;;;;;;;9.09;100.00;-25321.06;5058907;28;20026;-77
2022/10/03 04:22:10;;;;;;;;;;;;;;;9.21;100.00;-25324.44;5075584;28;19915;-80
2022/10/03 04:24:48;;;;;;;;;;;;;;;9.29;100.00;-25326.66;5074666;28;19921;-80
2022/10/03 04:27:16;;;;;;;;;;;;;;;9.37;100.00;-25328.88;5073046;28;19963;-80
2022/10/03 04:29:46;;;;;;;;;;;;;;;9.42;100.00;-25330.47;5054924;28;19916;-80
2022/10/03 04:32:33;;;;;;;;;;;;;;;9.52;100.00;-25333.28;5054258;28;19917;-81
2022/10/03 04:35:14;;;;;;;;;;;;;;;9.58;100.00;-25335.03;5091985;28;19916;-83
2022/10/03 04:37:42;;;;;;;;;;;;;;;9.65;100.00;-25337.09;5069174;28;19927;-81
2022/10/03 04:40:29;;;;;;;;;;;;;;;9.66;100.00;-25337.38;5090606;28;20300;-80
2022/10/03 04:43:03;;;;;;;;;;;;;;;9.67;100.00;-25337.53;5059906;28;20011;-78
2022/10/03 04:45:40;;;;;;;;;;;;;;;9.69;100.00;-25338.13;5057835;28;19920;-81
2022/10/03 04:48:12;;;;;;;;;;;;;;;9.76;100.00;-25340.19;5058648;28;19919;-84
2022/10/03 04:50:43;;;;;;;;;;;;;;;9.79;100.00;-25340.91;5058528;28;19917;-83
2022/10/03 04:53:29;;;;;;;;;;;;;;;9.88;100.00;-25343.72;5058957;28;20234;-84
2022/10/03 04:56:05;;;;;;;;;;;;;;;9.89;100.00;-25343.84;5093933;28;19917;-83
2022/10/03 04:58:50;;;;;;;;;;;;;;;9.94;100.00;-25345.31;5058712;28;19917;-78
2022/10/03 05:01:33;;;;;;;;;;;;;;;10.02;100.00;-25347.53;5059050;28;20301;-78
2022/10/03 05:04:04;;;;;;;;;;;;;;;10.04;100.00;-25348.13;5063461;28;19931;-78
2022/10/03 05:06:55;;;;;;;;;;;;;;;10.01;100.00;-25347.22;5075803;28;19916;-78
2022/10/03 05:09:31;;;;;;;;;;;;;;;10.03;100.00;-25347.97;5074029;28;19916;-78
2022/10/03 05:11:59;;;;;;;;;;;;;;;10.08;100.00;-25349.28;5074499;28;20395;-79
2022/10/03 05:14:41;;;;;;;;;;;;;;;10.09;100.00;-25349.56;5073602;28;19917;-78
2022/10/03 05:17:07;;;;;;;;;;;;;;;10.05;100.00;-25348.56;5074095;28;19920;-82
2022/10/03 05:19:40;;;;;;;;;;;;;;;10.02;100.00;-25347.53;5073864;28;20391;-81
2022/10/03 05:22:12;;;;;;;;;;;;;;;10.01;100.00;-25347.38;5073690;28;19916;-78
2022/10/03 05:24:49;;;;;;;;;;;;;;;10.04;100.00;-25348.13;5063820;28;19924;-77
2022/10/03 05:27:34;;;;;;;;;;;;;;;10.06;100.00;-25348.84;5056751;28;20030;-78
2022/10/03 05:30:18;;;;;;;;;;;;;;;10.09;100.00;-25349.56;5067061;28;20308;-77
2022/10/03 05:32:59;;;;;;;;;;;;;;;10.14;100.00;-25351.03;5057053;28;19944;-78
2022/10/03 05:35:51;;;;;;;;;;;;;;;10.17;100.00;-25351.94;5057128;28;20003;-77
2022/10/03 05:38:16;;;;;;;;;;;;;;;10.24;100.00;-25353.84;5055205;28;19960;-79
2022/10/03 05:40:49;;;;;;;;;;;;;;;10.32;100.00;-25356.03;5056729;28;19919;-75
2022/10/03 05:43:14;;;;;;;;;;;;;;;10.35;100.00;-25356.94;5055943;28;20003;-77
2022/10/03 05:45:48;;;;;;;;;;;;;;;10.38;100.00;-25357.94;5056096;28;20007;-78
2022/10/03 05:48:19;;;;;;;;;;;;;;;10.46;100.00;-25360.16;5056028;28;19933;-76
2022/10/03 05:51:07;;;;;;;;;;;;;;;10.49;100.00;-25360.88;5056291;28;19996;-80
2022/10/03 05:53:55;;;;;;;;;;;;;;;10.56;100.00;-25362.94;5056718;28;19921;-78
2022/10/03 05:56:30;;;;;;;;;;;;;;;10.60;100.00;-25364.25;5033304;28;19920;-75
2022/10/03 05:59:13;;;;;;;;;;;;;;;10.59;100.00;-25363.81;5074121;28;19921;-82
2022/10/03 06:01:57;;;;;;;;;;;;;;;10.60;100.00;-25364.13;5036749;28;19920;-79
2022/10/03 06:04:42;;;;;;;;;;;;;;;10.61;100.00;-25364.41;5036273;28;20421;-77
2022/10/03 06:07:20;;;;;;;;;;;;;;;10.63;100.00;-25365.00;5036326;28;19917;-79
2022/10/03 06:10:03;;;;;;;;;;;;;;;10.64;100.00;-25365.28;5053090;28;20342;-80
2022/10/03 06:12:36;;;;;;;;;;;;;;;10.66;100.00;-25365.72;5042950;28;19947;-80
2022/10/03 06:15:05;;;;;;;;;;;;;;;10.64;100.00;-25365.28;5055836;28;19916;-80
2022/10/03 06:17:30;;;;;;;;;;;;;;;10.61;100.00;-25364.41;5042823;28;20289;-79
2022/10/03 06:20:28;;;;;;;;;;;;;;;10.64;100.00;-25365.13;5036762;28;20011;-76
2022/10/03 06:23:08;;;;;;;;;;;;;;;10.68;100.00;-25366.47;5015031;28;20273;-80
2022/10/03 06:25:36;;;;;;;;;;;;;;;10.64;100.00;-25365.28;5054107;28;19921;-82
2022/10/03 06:28:20;;;;;;;;;;;;;;;10.69;100.00;-25366.75;5056215;28;19917;-77
2022/10/03 06:30:49;;;;;;;;;;;;;;;10.75;100.00;-25368.50;5054415;28;19924;-81
2022/10/03 06:33:33;;;;;;;;;;;;;;;10.81;100.00;-25369.97;5055628;28;20409;-80
2022/10/03 06:36:10;;;;;;;;;;;;;;;10.84;100.00;-25370.84;5055485;28;19925;-77
2022/10/03 06:38:56;;;;;;;;;;;;;;;10.86;100.00;-25371.59;5066440;28;19916;-78
2022/10/03 06:41:32;;;;;;;;;;;;;;;10.84;100.00;-25371.00;5045857;28;20269;-76
2022/10/03 06:44:16;;;;;;;;;;;;;;;10.77;100.00;-25369.09;5047919;28;19952;-79
2022/10/03 06:47:00;;;;;;;;;;;;;;;10.79;100.00;-25369.53;5042087;28;20114;-81
2022/10/03 06:49:44;;;;;;;;;;;;;;;10.80;100.00;-25369.84;5037126;28;19939;-77
2022/10/03 06:52:33;;;;;;;;;;;;;;;10.89;100.00;-25372.31;5041807;28;19920;-77
2022/10/03 06:55:10;;;;;;;;;;;;;;;11.08;100.00;-25377.91;5046127;28;19921;-79
2022/10/03 06:57:45;;;;;;;;;;;;;;;11.32;100.00;-25384.63;5050954;28;19939;-75
2022/10/03 07:00:14;;;;;;;;;;;;;;;11.56;100.00;-25391.38;5050460;28;20651;-79
2022/10/03 07:02:58;;;;;;;;;;;;;;;11.72;100.00;-25396.06;5050201;28;19919;-79
2022/10/03 07:05:43;;;;;;;;;;;;;;;11.83;100.00;-25399.13;5048021;28;19981;-79
2022/10/03 07:08:27;;;;;;;;;;;;;;;11.98;100.00;-25403.53;5041968;28;20415;-81
2022/10/03 07:10:52;;;;;;;;;;;;;;;12.23;100.00;-25410.41;5068119;28;19928;-82
2022/10/03 07:13:21;;;;;;;;;;;;;;;12.18;100.00;-25409.09;5031811;28;19921;-77
2022/10/03 07:15:56;;;;;;;;;;;;;;;12.29;100.00;-25412.16;5032976;28;19917;-77
2022/10/03 07:18:23;;;;;;;;;;;;;;;12.37;100.00;-25414.50;5034448;28;19923;-76
2022/10/03 07:20:57;;;;;;;;;;;;;;;12.39;100.00;-25415.22;5059569;28;20028;-78
2022/10/03 07:23:28;;;;;;;;;;;;;;;12.43;100.00;-25416.25;5071268;28;19928;-77
2022/10/03 07:26:20;;;;;;;;;;;;;;;12.43;100.00;-25416.25;5055471;28;20686;-78
2022/10/03 07:28:49;;;;;;;;;;;;;;;12.47;100.00;-25417.28;5070636;28;20000;-78
2022/10/03 07:31:33;;;;;;;;;;;;;;;12.52;100.00;-25418.75;5054594;28;19981;-77
2022/10/03 07:34:13;;;;;;;;;;;;;;;12.52;100.00;-25418.75;5071474;28;20018;-77
2022/10/03 07:39:50;;;;;;;;;;;;;;;12.63;100.00;-25421.97;5052846;28;20690;-79
2022/10/03 07:42:34;;;;;;;;;;;;;;;12.68;100.00;-25423.41;5033645;28;19956;-76
2022/10/03 07:45:02;;;;;;;;;;;;;;;12.73;100.00;-25424.88;5069059;28;19924;-77
2022/10/03 07:47:47;;;;;;;;;;;;;;;12.85;100.00;-25428.09;5044253;28;19925;-77
2022/10/03 07:50:31;;;;;;;;;;;;;;;13.05;100.00;-25433.94;5052575;28;20369;-76
2022/10/03 07:53:12;;;;;;;;;;;;;;;13.14;100.00;-25436.28;5055094;28;20331;-74
2022/10/03 07:55:46;;;;;;;;;;;;;;;13.31;100.00;-25441.09;5072359;28;19920;-76
2022/10/03 07:58:26;;;;;;;;;;;;;;;13.43;100.00;-25444.59;5040469;28;19920;-79
2022/10/03 08:01:07;;;;;;;;;;;;;;;13.74;100.00;-25453.34;5035589;28;19972;-76
2022/10/03 08:03:42;;;;;;;;;;;;;;;13.80;100.00;-25455.09;5052859;28;20411;-76
2022/10/03 08:06:23;;;;;;;;;;;;;;;13.93;100.00;-25458.75;5053436;28;20019;-76
2022/10/03 08:09:06;;;;;;;;;;;;;;;14.00;100.00;-25460.94;5039952;28;19924;-77
2022/10/03 08:11:44;;;;;;;;;;;;;;;13.99;100.00;-25460.66;5087137;28;19924;-77
2022/10/03 08:14:12;;;;;;;;;;;;;;;14.05;100.00;-25462.25;5058500;28;19948;-76
2022/10/03 08:17:00;;;;;;;;;;;;;;;14.14;100.00;-25464.72;5092845;28;19925;-76
2022/10/03 08:19:45;;;;;;;;;;;;;;;14.30;100.00;-25469.25;5059017;28;20261;-75
2022/10/03 08:22:23;;;;;;;;;;;;;;;14.36;100.00;-25471.00;5058899;28;20289;-76
2022/10/03 08:24:55;;;;;;;;;;;;;;;14.49;100.00;-24815.88;5072985;28;19932;-81
2022/10/03 08:27:48;;;;;;;;;;;;;;;14.65;100.00;-23505.84;5074055;28;20368;-77
2022/10/03 08:30:25;;;;;;;;;;;;;;;14.78;100.00;-21536.25;5077577;28;20391;-76
2022/10/03 08:33:09;;;;;;;;;;;;;;;14.81;100.00;-18575.66;5080344;28;20329;-75
2022/10/03 08:35:46;;;;;;;;;;;;;;;14.87;100.00;-16601.06;5078474;28;20018;-76
2022/10/03 08:38:24;;;;;;;;;;;;;;;15.02;100.00;-14296.47;5115733;28;19923;-78
2022/10/03 08:41:08;;;;;;;;;;;;;;;14.90;100.00;-10668.09;5079671;28;19916;-77
2022/10/03 08:43:45;;;;;;;;;;;;;;;14.86;100.00;-8688.16;5077748;28;19977;-74
2022/10/03 08:46:26;;;;;;;;;;;;;;;15.05;100.00;-8028.16;5069553;28;19924;-76
2022/10/03 08:49:06;;;;;;;;;;;;;;;15.27;100.00;-6045.97;5073340;28;19999;-76
2022/10/03 08:51:54;;;;;;;;;;;;;;;15.69;100.00;-4391.09;5059332;28;20411;-82
2022/10/03 08:54:38;;;;;;;;;;;;;;;15.93;100.00;-84.91;5065757;28;20027;-78
2022/10/03 08:57:07;;;;;;;;;;;;;;;16.06;100.00;6550.41;5107218;28;19923;-80
2022/10/03 08:59:36;;;;;;;;;;;;;;;16.08;100.00;13196.28;5114344;28;19927;-80
2022/10/03 09:02:21;;;;;;;;;;;;;;;16.11;100.00;18855.16;5096522;28;20032;-82
2022/10/03 09:05:05;;;;;;;;;;;;;;;16.12;100.00;22521.00;5097491;28;20311;-81
2022/10/03 09:07:43;;;;;;;;;;;;;;;16.31;100.00;26533.88;5096038;28;19920;-78
2022/10/03 09:10:30;;;;;;;;;;;;;;;16.45;100.00;31219.00;5094428;28;19920;-78
2022/10/03 09:13:14;;;;;;;;;;;;;;;16.42;100.00;33891.91;5055010;28;19927;-78
2022/10/03 09:15:41;;;;;;;;;;;;;;;16.23;100.00;39568.75;5095684;28;20006;-78
2022/10/03 09:18:10;;;;;;;;;;;;;;;16.19;100.00;41239.97;5095627;28;19967;-78
2022/10/03 09:20:54;;;;;;;;;;;;;;;16.11;100.00;39894.75;5109673;28;19916;-77
2022/10/03 09:23:34;;;;;;;;;;;;;;;16.17;100.00;37220.81;5076530;28;19938;-77
2022/10/03 09:26:19;;;;;;;;;;;;;;;16.18;100.00;36886.91;5077170;28;20376;-78
2022/10/03 09:29:05;;;;;;;;;;;;;;;16.28;100.00;39572.22;5075744;28;19916;-78
2022/10/03 09:31:54;;;;;;;;;;;;;;;16.20;100.00;42245.94;5069188;28;19916;-78
2022/10/03 09:34:38;;;;;;;;;;;;;;;16.20;100.00;42246.34;5071501;28;20364;-78
2022/10/03 09:37:03;;;;;;;;;;;;;;;16.22;100.00;40907.75;5075786;28;19916;-78
2022/10/03 09:39:45;;;;;;;;;;;;;;;16.43;100.00;39918.78;5094060;28;19920;-78
2022/10/03 09:42:31;;;;;;;;;;;;;;;16.36;100.00;38238.78;5076369;28;19958;-76
2022/10/03 09:45:07;;;;;;;;;;;;;;;16.07;100.00;39222.03;5074113;28;20304;-76
2022/10/03 09:47:51;;;;;;;;;;;;;;;16.05;100.00;38216.34;5065785;28;19928;-76
2022/10/03 09:50:35;;;;;;;;;;;;;;;15.99;100.00;33529.56;5064514;28;20388;-75
2022/10/03 09:53:06;;;;;;;;;;;;;;;16.20;100.00;30200.84;5065407;28;19916;-78
2022/10/03 09:55:32;;;;;;;;;;;;;;;16.28;100.00;30205.75;5106563;28;19983;-76
2022/10/03 09:58:16;;;;;;;;;;;;;;;16.33;100.00;32548.56;5104597;28;19955;-74
2022/10/03 10:00:48;;;;;;;;;;;;;;;16.36;100.00;32550.53;5061651;28;19965;-74
2022/10/03 10:03:13;;;;;;;;;;;;;;;16.23;100.00;35551.75;5075565;28;20008;-73
2022/10/03 10:05:47;;;;;;;;;;;;;;;16.15;100.00;37219.38;5075692;28;19974;-73
2022/10/03 10:08:19;;;;;;;;;;;;;;;15.97;100.00;35868.94;5075176;28;19960;-74
2022/10/03 10:10:51;;;;;;;;;;;;;;;15.82;100.00;33184.00;5076069;28;19951;-75
2022/10/03 10:13:26;;;;;;;;;;;;;;;15.78;100.00;28506.97;5077050;28;19920;-75
2022/10/03 10:15:51;;;;;;;;;;;;;;;15.77;100.00;24170.66;5076380;28;19916;-78
2022/10/03 10:18:19;;;;;;;;;;;;;;;15.84;100.00;18843.97;5078248;28;19924;-74
2022/10/03 10:21:12;;;;;;;;;;;;;;;15.93;100.00;13191.41;5077795;28;20332;-74
2022/10/03 10:23:49;;;;;;;;;;;;;;;16.03;100.00;10535.28;5077033;28;19920;-76
2022/10/03 10:26:29;;;;;;;;;;;;;;;15.94;100.00;9536.13;5077731;28;20303;-77
2022/10/03 10:29:13;;;;;;;;;;;;;;;16.03;100.00;7545.72;5076552;28;19959;-75
2022/10/03 10:31:51;;;;;;;;;;;;;;;16.04;100.00;5554.19;5077142;28;19916;-75
2022/10/03 10:34:17;;;;;;;;;;;;;;;16.16;100.00;4229.22;5076515;28;19912;-75
2022/10/03 10:37:01;;;;;;;;;;;;;;;16.20;100.00;3234.47;5075472;28;20261;-74
2022/10/03 10:39:27;;;;;;;;;;;;;;;16.11;100.00;3896.56;5075952;28;19927;-75
2022/10/03 10:42:11;;;;;;;;;;;;;;;16.20;100.00;4229.88;5075487;28;20416;-75
2022/10/03 10:44:52;;;;;;;;;;;;;;;16.12;100.00;4228.53;5074205;28;19923;-75
2022/10/03 10:47:36;;;;;;;;;;;;;;;16.14;100.00;2570.16;5076591;28;20008;-74
2022/10/03 10:50:23;;;;;;;;;;;;;;;16.30;100.00;582.59;5076233;28;19922;-76
2022/10/03 10:53:07;;;;;;;;;;;;;;;16.25;100.00;1245.19;5074596;28;19920;-76
2022/10/03 10:55:46;;;;;;;;;;;;;;;16.24;100.00;2903.41;5074972;28;20008;-75
2022/10/03 10:58:24;;;;;;;;;;;;;;;16.30;100.00;3900.00;5075407;28;19916;-77
2022/10/03 11:01:08;;;;;;;;;;;;;;;16.25;100.00;3899.06;5075159;28;19943;-75
2022/10/03 11:03:36;;;;;;;;;;;;;;;16.23;100.00;3566.78;5074563;28;19959;-75
2022/10/03 11:06:21;;;;;;;;;;;;;;;16.26;100.00;2240.34;5074610;28;19923;-75
2022/10/03 11:09:05;;;;;;;;;;;;;;;16.13;100.00;-745.31;5074999;28;20296;-75
2022/10/03 11:11:56;;;;;;;;;;;;;;;15.94;100.00;-1409.94;5076986;28;19916;-76
2022/10/03 11:14:26;;;;;;;;;;;;;;;15.75;100.00;1901.00;5080704;28;19920;-75
2022/10/03 11:17:09;;;;;;;;;;;;;;;15.66;100.00;2231.00;5081160;28;19916;-75
2022/10/03 11:19:56;;;;;;;;;;;;;;;15.61;100.00;1898.94;5078515;28;20372;-83
2022/10/03 11:22:42;;;;;;;;;;;;;;;15.52;100.00;-420.88;5075632;28;19928;-76
2022/10/03 11:25:07;;;;;;;;;;;;;;;15.44;100.00;-4392.31;5070248;28;20293;-76
2022/10/03 11:28:02;;;;;;;;;;;;;;;15.42;100.00;-7367.63;5052125;28;19920;-76
2022/10/03 11:30:27;;;;;;;;;;;;;;;15.40;100.00;-11660.91;5037973;28;20360;-76
2022/10/03 11:33:05;;;;;;;;;;;;;;;15.42;100.00;-14960.38;5056892;28;19920;-77
2022/10/03 11:35:56;;;;;;;;;;;;;;;15.50;100.00;-17269.44;5076066;28;20507;-75
2022/10/03 11:38:31;;;;;;;;;;;;;;;15.55;100.00;-18258.97;5060249;28;19981;-78
2022/10/03 11:41:00;;;;;;;;;;;;;;;15.56;100.00;-18259.25;5077199;28;19917;-81
2022/10/03 11:43:46;;;;;;;;;;;;;;;15.55;100.00;-17270.13;5067017;28;20253;-76
2022/10/03 11:46:23;;;;;;;;;;;;;;;15.55;100.00;-14302.13;5059657;28;19912;-76
2022/10/03 11:48:55;;;;;;;;;;;;;;;15.60;100.00;-11662.16;5074563;28;20261;-75
2022/10/03 11:51:31;;;;;;;;;;;;;;;15.59;100.00;-7698.09;5075290;28;20327;-76
2022/10/03 11:54:08;;;;;;;;;;;;;;;15.58;100.00;-3730.00;5074800;28;20003;-75
2022/10/03 11:56:42;;;;;;;;;;;;;;;15.62;100.00;242.69;5058195;28;19920;-75
2022/10/03 11:59:17;;;;;;;;;;;;;;;15.59;100.00;2229.97;5066691;28;19924;-76
2022/10/03 12:01:55;;;;;;;;;;;;;;;15.61;100.00;2230.28;5055159;28;20086;-76
2022/10/03 12:04:29;;;;;;;;;;;;;;;15.60;100.00;2561.44;5088501;28;19916;-75
2022/10/03 12:09:54;;;;;;;;;;;;;;;15.60;100.00;4218.75;5053137;28;19970;-75
2022/10/03 12:12:42;;;;;;;;;;;;;;;15.65;100.00;5214.53;5067816;28;19928;-75
2022/10/03 12:15:26;;;;;;;;;;;;;;;15.60;100.00;4881.97;5071674;28;20296;-75
2022/10/03 12:18:16;;;;;;;;;;;;;;;15.53;100.00;4880.56;5073337;28;20019;-75
2022/10/03 12:20:57;;;;;;;;;;;;;;;15.58;100.00;4550.00;5044072;28;19931;-75
2022/10/03 12:23:42;;;;;;;;;;;;;;;15.53;100.00;5875.25;5106753;28;19916;-75
2022/10/03 12:26:14;;;;;;;;;;;;;;;15.52;100.00;7201.78;5073575;28;20022;-75
2022/10/03 12:28:44;;;;;;;;;;;;;;;15.51;100.00;7533.44;5073853;28;19916;-76
2022/10/03 12:31:25;;;;;;;;;;;;;;;15.47;100.00;6868.88;5073675;28;19923;-75
2022/10/03 12:34:02;;;;;;;;;;;;;;;15.52;100.00;6538.47;5073393;28;19916;-75
2022/10/03 12:36:30;;;;;;;;;;;;;;;15.54;100.00;6870.66;5073217;28;19944;-76
2022/10/03 12:38:58;;;;;;;;;;;;;;;15.49;100.00;7201.06;5074273;28;19916;-75
2022/10/03 12:41:36;;;;;;;;;;;;;;;15.52;100.00;6538.34;5074349;28;19920;-75
2022/10/03 12:44:17;;;;;;;;;;;;;;;15.50;100.00;6537.91;5074096;28;20365;-75
2022/10/03 12:46:42;;;;;;;;;;;;;;;15.47;100.00;6868.88;5074866;28;19971;-76
2022/10/03 12:49:14;;;;;;;;;;;;;;;15.38;100.00;7530.25;5074514;28;19920;-74
2022/10/03 12:52:06;;;;;;;;;;;;;;;15.41;100.00;6204.44;5073193;28;19945;-75
2022/10/03 12:54:34;;;;;;;;;;;;;;;15.39;100.00;5209.31;5071507;28;20010;-75
2022/10/03 12:57:12;;;;;;;;;;;;;;;15.39;100.00;5872.41;5076179;28;20061;-75
2022/10/03 12:59:41;;;;;;;;;;;;;;;15.46;100.00;5542.13;5063683;28;20019;-76
2022/10/03 13:02:11;;;;;;;;;;;;;;;15.40;100.00;5540.97;5062506;28;19921;-78
2022/10/03 13:04:46;;;;;;;;;;;;;;;15.44;100.00;4215.88;5063182;28;19999;-76
2022/10/03 13:07:24;;;;;;;;;;;;;;;15.48;100.00;4548.03;5063658;28;20539;-78
2022/10/03 13:09:56;;;;;;;;;;;;;;;15.56;100.00;5212.66;5064992;28;19916;-74
2022/10/03 13:12:39;;;;;;;;;;;;;;;15.59;100.00;3555.56;5063372;28;20416;-76
2022/10/03 13:15:23;;;;;;;;;;;;;;;15.60;100.00;6871.94;5047749;28;19921;-78
2022/10/03 13:17:54;;;;;;;;;;;;;;;15.67;100.00;9196.88;5082515;28;19924;-77
2022/10/03 13:20:20;;;;;;;;;;;;;;;15.69;100.00;11190.00;5082423;28;19916;-76
2022/10/03 13:23:24;;;;;;;;;;;;;;;15.73;100.00;11523.28;5075747;28;19931;-75
2022/10/03 13:25:58;;;;;;;;;;;;;;;15.73;100.00;11523.44;4945822;29;19930;-78
2022/10/03 13:28:42;;;;;;;;;;;;;;;15.73;100.00;9862.66;4955384;28;19926;-78
2022/10/03 13:31:16;;;;;;;;;;;;;;;15.77;100.00;5880.50;5006007;28;19924;-77
2022/10/03 13:33:49;;;;;;;;;;;;;;;15.87;100.00;5882.56;5027063;28;19921;-75
2022/10/03 13:36:17;;;;;;;;;;;;;;;15.83;100.00;13852.91;5041042;23;19916;-77
2022/10/03 13:38:58;;;;;;;;;;;;;;;15.81;100.00;23839.13;5021627;28;19926;-80
2022/10/03 13:41:42;;;;;;;;;;;;;;;15.86;100.00;28845.16;5043595;28;19918;-79
2022/10/03 13:44:16;;;;;;;;;;;;;;;15.89;100.00;37535.22;5024997;28;19917;-79